Time;durP1;ratioP1;P1;durP2;ratioP2;P2;SDS_P1;SDS_P2;PMS_P1;PMS_P2;Temp;Humidity;BMP_temperature;BMP_pressure;BME280_temperature;BME280_humidity;BME280_pressure;Samples;Min_cycle;Max_cycle;Signal;HPM_P1;HPM_P2
2022/08/15 00:01:19;;;;;;;12.90;7.30;;;;;;;29.93;91.74;100155.81;5077251;28;20028;-48
2022/08/15 00:03:52;;;;;;;10.57;7.20;;;;;;;29.88;92.52;100152.13;5070329;28;20073;-50
2022/08/15 00:06:31;;;;;;;10.17;6.43;;;;;;;29.86;93.07;100148.94;5073883;28;20043;-53
2022/08/15 00:08:59;;;;;;;9.57;6.17;;;;;;;29.88;92.84;100151.34;5072014;28;20037;-50
2022/08/15 00:11:31;;;;;;;9.93;6.80;;;;;;;29.85;94.20;100152.84;5074335;28;20029;-52
2022/08/15 00:14:03;;;;;;;11.63;6.63;;;;;;;29.86;94.00;100157.19;5076253;28;20040;-51
2022/08/15 00:16:35;;;;;;;13.30;7.90;;;;;;;29.85;94.37;100147.31;5076719;28;20067;-51
2022/08/15 00:19:08;;;;;;;11.80;6.93;;;;;;;29.80;95.03;100150.31;5073921;28;20025;-47
2022/08/15 00:21:36;;;;;;;10.00;6.77;;;;;;;29.76;95.33;100147.44;5080670;28;20059;-48
2022/08/15 00:24:03;;;;;;;13.53;6.63;;;;;;;29.77;95.55;100145.50;5074401;28;20055;-48
2022/08/15 00:26:29;;;;;;;10.40;6.67;;;;;;;29.61;96.40;100131.56;5076019;28;20100;-52
2022/08/15 00:28:54;;;;;;;9.80;6.30;;;;;;;29.57;97.31;100134.22;5074517;28;20041;-52
2022/08/15 00:31:21;;;;;;;10.40;6.73;;;;;;;29.54;98.21;100131.34;5073476;28;20062;-51
2022/08/15 00:33:48;;;;;;;13.53;6.13;;;;;;;29.50;98.75;100130.41;5071055;28;20118;-50
2022/08/15 00:36:15;;;;;;;14.63;7.17;;;;;;;29.44;98.79;100132.56;5072524;28;20043;-48
2022/08/15 00:38:41;;;;;;;8.80;6.57;;;;;;;29.44;99.09;100135.31;5072569;28;20033;-49
2022/08/15 00:43:57;;;;;;;9.13;6.60;;;;;;;29.41;99.32;100134.06;5073412;28;20033;-49
2022/08/15 00:46:26;;;;;;;11.57;6.97;;;;;;;29.48;99.78;100133.50;5073409;28;20032;-48
2022/08/15 00:48:52;;;;;;;15.93;6.90;;;;;;;29.48;100.00;100125.22;5079921;28;20056;-50
2022/08/15 00:51:34;;;;;;;15.20;6.53;;;;;;;29.50;100.00;100128.44;5072825;28;20044;-51
2022/08/15 00:54:11;;;;;;;11.60;7.07;;;;;;;29.45;100.00;100131.44;5075893;28;20043;-52
2022/08/15 00:57:01;;;;;;;10.70;6.87;;;;;;;29.45;100.00;100128.66;5080978;28;20029;-52
2022/08/15 00:59:32;;;;;;;8.23;6.77;;;;;;;29.44;100.00;100132.56;5062310;28;20045;-51
2022/08/15 01:02:01;;;;;;;8.80;6.30;;;;;;;29.46;100.00;100128.34;5070489;28;20028;-51
2022/08/15 01:04:27;;;;;;;9.67;6.77;;;;;;;29.39;100.00;100130.81;5075494;28;20044;-50
2022/08/15 01:06:58;;;;;;;8.57;6.67;;;;;;;29.48;100.00;100128.81;5072505;28;20029;-51
2022/08/15 01:09:26;;;;;;;9.57;6.67;;;;;;;29.50;100.00;100133.94;5072057;28;20033;-52
2022/08/15 01:11:58;;;;;;;9.70;6.17;;;;;;;29.45;99.80;100134.19;5076025;28;20089;-48
2022/08/15 01:14:24;;;;;;;7.87;5.83;;;;;;;29.42;100.00;100134.88;5071244;28;20029;-52
2022/08/15 01:16:51;;;;;;;8.07;5.87;;;;;;;29.32;100.00;100128.63;5076867;28;20029;-46
2022/08/15 01:19:20;;;;;;;12.43;6.63;;;;;;;29.30;100.00;100130.94;5073181;28;20035;-48
2022/08/15 01:22:08;;;;;;;10.80;6.80;;;;;;;29.29;100.00;100132.03;5076344;28;20084;-48
2022/08/15 01:24:56;;;;;;;9.00;6.17;;;;;;;29.24;100.00;100121.25;5080542;28;20053;-51
2022/08/15 01:27:29;;;;;;;12.97;6.27;;;;;;;29.19;100.00;100126.97;5069975;28;20040;-54
2022/08/15 01:29:57;;;;;;;11.17;6.00;;;;;;;28.27;100.00;100145.97;5068428;28;20029;-50
2022/08/15 01:32:22;;;;;;;10.10;6.73;;;;;;;28.12;100.00;100141.84;5069174;28;20088;-49
2022/08/15 01:34:49;;;;;;;10.30;6.80;;;;;;;28.35;100.00;100117.63;5070218;28;20045;-50
2022/08/15 01:37:15;;;;;;;;;;;;;;;27.98;100.00;100139.31;5072031;28;20040;-53
2022/08/15 01:39:53;;;;;;;10.95;7.40;;;;;;;27.91;100.00;100137.91;5072982;28;19959;-50
2022/08/15 01:42:38;;;;;;;12.67;6.73;;;;;;;28.15;100.00;100120.03;5056458;28;20032;-50
2022/08/15 01:45:14;;;;;;;14.33;7.63;;;;;;;28.23;100.00;100125.81;5076563;28;20045;-50
2022/08/15 01:48:07;;;;;;;8.40;6.55;;;;;;;27.63;100.00;100121.84;5070544;28;20060;-50
2022/08/15 01:50:40;;;;;;;9.93;6.30;;;;;;;27.99;100.00;100132.69;5072787;28;20039;-51
2022/08/15 01:53:30;;;;;;;10.70;6.83;;;;;;;28.03;100.00;100122.66;5072428;28;20033;-52
2022/08/15 01:56:11;;;;;;;11.30;7.50;;;;;;;28.19;100.00;100126.47;5073281;28;20025;-49
2022/08/15 01:58:42;;;;;;;10.23;6.87;;;;;;;28.14;100.00;100110.16;5069752;28;20036;-50
2022/08/15 02:01:13;;;;;;;12.47;6.67;;;;;;;28.14;100.00;100112.91;5071978;28;20036;-49
2022/08/15 02:03:42;;;;;;;10.73;7.10;;;;;;;28.01;100.00;100119.44;5069719;28;20037;-47
2022/08/15 02:06:30;;;;;;;9.80;7.60;;;;;;;28.12;100.00;100103.34;5071048;28;20470;-48
2022/08/15 02:08:56;;;;;;;11.00;7.47;;;;;;;28.11;100.00;100108.03;5072644;28;20033;-50
2022/08/15 02:11:28;;;;;;;12.03;7.37;;;;;;;28.10;100.00;100102.88;5074519;28;20558;-51
2022/08/15 02:13:56;;;;;;;10.00;7.47;;;;;;;28.08;100.00;100100.47;5073698;28;20037;-49
2022/08/15 02:16:32;;;;;;;10.90;7.07;;;;;;;28.06;100.00;100097.25;5071603;28;20125;-49
2022/08/15 02:18:59;;;;;;;10.27;6.77;;;;;;;28.02;100.00;100094.34;5073597;28;20051;-48
2022/08/15 02:21:27;;;;;;;15.83;8.70;;;;;;;27.89;100.00;100098.16;5073350;28;20063;-50
2022/08/15 02:23:53;;;;;;;10.87;7.67;;;;;;;27.96;100.00;100100.38;5067304;28;20032;-51
2022/08/15 02:26:19;;;;;;;;;;;;;;;27.93;100.00;100096.34;5070465;28;20036;-50
2022/08/15 02:28:45;;;;;;;11.53;7.30;;;;;;;27.85;100.00;100095.25;5070143;28;19913;-51
2022/08/15 02:31:16;;;;;;;12.00;7.63;;;;;;;27.83;100.00;100096.75;5068642;28;20049;-50
2022/08/15 02:33:50;;;;;;;13.17;8.30;;;;;;;27.74;100.00;100094.03;5086620;28;20025;-53
2022/08/15 02:36:17;;;;;;;12.43;7.57;;;;;;;27.68;100.00;100085.16;5071753;28;20029;-53
2022/08/15 02:38:44;;;;;;;11.50;7.63;;;;;;;27.56;100.00;100079.56;5068817;28;20037;-47
2022/08/15 02:41:12;;;;;;;9.20;6.73;;;;;;;27.46;100.00;100094.44;5073180;28;20025;-50
2022/08/15 02:43:43;;;;;;;10.03;6.93;;;;;;;27.12;100.00;100094.22;5091002;28;20415;-47
2022/08/15 02:46:10;;;;;;;10.97;7.37;;;;;;;27.09;100.00;100092.09;5074288;28;20025;-50
2022/08/15 02:48:40;;;;;;;10.30;7.50;;;;;;;27.27;100.00;100095.63;5072070;28;20127;-52
2022/08/15 02:51:07;;;;;;;;;;;;;;;27.22;100.00;100089.50;5071173;28;20033;-52
2022/08/15 02:53:35;;;;;;;11.07;7.23;;;;;;;27.26;100.00;100091.28;5075497;28;19912;-52
2022/08/15 02:56:01;;;;;;;10.83;7.60;;;;;;;27.06;100.00;100092.75;5070256;28;20089;-49
2022/08/15 02:58:28;;;;;;;10.27;7.60;;;;;;;27.05;100.00;100097.44;5066303;28;20036;-48
2022/08/15 03:00:53;;;;;;;;;;;;;;;27.08;100.00;100093.22;5075218;28;20037;-52
2022/08/15 03:03:19;;;;;;;11.80;7.83;;;;;;;27.19;100.00;100097.25;5076499;28;19940;-48
2022/08/15 03:05:48;;;;;;;14.57;8.63;;;;;;;27.02;100.00;100105.50;5071334;28;20052;-49
2022/08/15 03:08:15;;;;;;;12.93;8.33;;;;;;;26.74;100.00;100119.53;5070056;28;20089;-50
2022/08/15 03:10:41;;;;;;;;;;;;;;;26.68;100.00;100116.16;5072376;28;20048;-51
2022/08/15 03:13:15;;;;;;;12.50;9.30;;;;;;;26.58;100.00;100111.00;5071957;28;19967;-51
2022/08/15 03:15:47;;;;;;;16.27;10.00;;;;;;;26.48;100.00;100107.44;5072057;28;20032;-52
2022/08/15 03:18:14;;;;;;;16.90;9.77;;;;;;;26.38;100.00;100099.53;5067281;28;20025;-51
2022/08/15 03:20:44;;;;;;;18.27;9.17;;;;;;;26.51;100.00;100110.66;5070164;28;20037;-51
2022/08/15 03:23:14;;;;;;;17.07;9.93;;;;;;;26.08;100.00;100104.78;5069590;28;20108;-48
2022/08/15 03:25:51;;;;;;;17.63;10.50;;;;;;;26.18;100.00;100106.41;5070516;28;20056;-49
2022/08/15 03:28:21;;;;;;;14.77;10.00;;;;;;;25.98;100.00;100105.88;5067662;28;20057;-50
2022/08/15 03:30:47;;;;;;;15.97;9.97;;;;;;;26.09;100.00;100089.94;5069916;28;20039;-49
2022/08/15 03:33:12;;;;;;;;;;;;;;;26.19;100.00;100097.09;5069589;28;20029;-49
2022/08/15 03:35:45;;;;;;;17.10;11.40;;;;;;;25.95;100.00;100083.78;5067348;28;19917;-50
2022/08/15 03:38:17;;;;;;;24.27;11.93;;;;;;;26.09;100.00;100092.69;5070787;28;20025;-47
2022/08/15 03:40:45;;;;;;;18.43;12.50;;;;;;;25.91;100.00;100095.38;5069801;28;20037;-50
2022/08/15 03:43:15;;;;;;;17.40;12.43;;;;;;;25.94;100.00;100093.13;5074444;28;20049;-53
2022/08/15 03:45:48;;;;;;;24.53;12.67;;;;;;;25.89;100.00;100088.59;5073763;28;20021;-51
2022/08/15 03:48:14;;;;;;;18.43;11.83;;;;;;;25.80;100.00;100096.78;5074594;28;20028;-47
2022/08/15 03:50:41;;;;;;;17.17;11.77;;;;;;;25.85;100.00;100095.84;5067157;28;20056;-48
2022/08/15 03:53:08;;;;;;;19.13;11.67;;;;;;;26.04;100.00;100104.59;5068840;28;20029;-49
2022/08/15 03:55:39;;;;;;;20.30;11.93;;;;;;;25.80;100.00;100113.22;5066811;28;20025;-51
2022/08/15 03:58:08;;;;;;;15.53;11.67;;;;;;;25.90;100.00;100110.19;5071836;28;20029;-46
2022/08/15 04:00:44;;;;;;;17.43;11.00;;;;;;;26.09;100.00;100109.13;5077161;28;20025;-53
2022/08/15 04:03:14;;;;;;;14.77;10.07;;;;;;;26.05;100.00;100105.38;5080730;28;20044;-53
2022/08/15 04:05:44;;;;;;;18.13;11.43;;;;;;;25.97;100.00;100119.88;5075831;28;20036;-50
2022/08/15 04:08:13;;;;;;;13.87;9.60;;;;;;;25.92;100.00;100118.91;5081911;28;20025;-47
2022/08/15 04:10:39;;;;;;;12.67;9.23;;;;;;;25.73;100.00;100115.59;5082117;28;20040;-47
2022/08/15 04:13:06;;;;;;;;;;;;;;;25.71;100.00;100115.13;5078332;28;20106;-48
2022/08/15 04:15:32;;;;;;;11.45;8.80;;;;;;;25.53;100.00;100119.72;5076851;28;19944;-52
2022/08/15 04:17:59;;;;;;;11.17;8.10;;;;;;;25.48;100.00;100126.13;5078362;28;20033;-50
2022/08/15 04:20:24;;;;;;;12.23;7.20;;;;;;;25.23;100.00;100128.34;5073264;28;20063;-50
2022/08/15 04:22:51;;;;;;;;;;;;;;;24.83;100.00;100129.03;5071125;28;20029;-50
2022/08/15 04:25:21;;;;;;;8.17;6.07;;;;;;;25.02;100.00;100131.59;5071442;28;19988;-54
2022/08/15 04:27:52;;;;;;;10.37;5.73;;;;;;;25.04;100.00;100140.28;5071452;28;20043;-49
2022/08/15 04:30:19;;;;;;;9.63;5.00;;;;;;;25.01;100.00;100135.44;5070147;28;20059;-52
2022/08/15 04:32:45;;;;;;;13.63;5.43;;;;;;;25.32;100.00;100134.69;5072844;28;20068;-51
2022/08/15 04:35:11;;;;;;;8.30;5.10;;;;;;;25.17;100.00;100132.34;5075357;28;20124;-50
2022/08/15 04:37:39;;;;;;;9.37;5.50;;;;;;;25.13;100.00;100131.34;5078799;28;20033;-52
2022/08/15 04:40:09;;;;;;;9.70;6.77;;;;;;;25.24;100.00;100131.88;5076517;28;20115;-53
2022/08/15 04:42:50;;;;;;;12.17;6.47;;;;;;;24.97;100.00;100122.69;5075960;28;20480;-49
2022/08/15 04:45:17;;;;;;;18.77;10.03;;;;;;;25.16;100.00;100123.31;5069966;28;20031;-55
2022/08/15 04:47:43;;;;;;;9.40;5.77;;;;;;;24.96;100.00;100132.84;5071693;28;20028;-50
2022/08/15 04:50:09;;;;;;;12.45;5.10;;;;;;;24.56;100.00;100140.81;5070262;28;20032;-50
2022/08/15 04:52:46;;;;;;;9.83;5.33;;;;;;;24.66;100.00;100132.38;5057555;28;20053;-54
2022/08/15 04:55:14;;;;;;;13.43;4.77;;;;;;;24.84;100.00;100135.31;5069398;28;20068;-52
2022/08/15 04:57:41;;;;;;;9.07;5.27;;;;;;;24.68;100.00;100132.09;5072495;28;20029;-53
2022/08/15 05:00:10;;;;;;;10.57;4.97;;;;;;;24.65;100.00;100138.19;5073624;28;20065;-52
2022/08/15 05:03:04;;;;;;;10.07;5.50;;;;;;;24.58;100.00;100144.06;5073150;28;20052;-55
2022/08/15 05:05:36;;;;;;;7.10;4.70;;;;;;;24.23;100.00;100135.53;5072658;28;20025;-54
2022/08/15 05:08:02;;;;;;;7.53;4.20;;;;;;;24.36;100.00;100137.41;5072661;28;20029;-53
2022/08/15 05:10:32;;;;;;;8.17;4.67;;;;;;;24.41;100.00;100140.03;5074165;28;20195;-55
2022/08/15 05:13:17;;;;;;;9.75;4.65;;;;;;;24.32;100.00;100139.94;5073285;28;20028;-52
2022/08/15 05:15:44;;;;;;;9.50;4.43;;;;;;;24.54;100.00;100143.06;5069544;28;20028;-55
2022/08/15 05:18:10;;;;;;;11.23;5.13;;;;;;;24.49;100.00;100153.00;5070687;28;20063;-56
2022/08/15 05:20:36;;;;;;;;;;;;;;;24.52;100.00;100148.03;5074804;28;20047;-52
2022/08/15 05:23:04;;;;;;;9.93;4.80;;;;;;;24.33;100.00;100129.84;5071934;28;19994;-56
2022/08/15 05:25:39;;;;;;;7.43;4.80;;;;;;;24.34;100.00;100134.19;5070478;28;20026;-55
2022/08/15 05:28:05;;;;;;;10.10;4.90;;;;;;;24.46;100.00;100136.41;5071398;28;20033;-54
2022/08/15 05:30:31;;;;;;;12.40;5.83;;;;;;;24.60;100.00;100133.63;5074711;28;20040;-55
2022/08/15 05:33:02;;;;;;;16.10;7.18;;;;;;;24.59;100.00;100132.84;5071590;28;20029;-55
2022/08/15 05:35:30;;;;;;;15.27;6.53;;;;;;;24.52;100.00;100139.81;5072560;28;20048;-53
2022/08/15 05:37:57;;;;;;;8.77;4.43;;;;;;;24.60;100.00;100144.56;5081056;28;20040;-52
2022/08/15 05:40:22;;;;;;;11.50;4.33;;;;;;;24.58;100.00;100144.06;5075560;28;20032;-52
2022/08/15 05:43:18;;;;;;;12.02;4.15;;;;;;;24.67;100.00;100144.16;5070829;28;20041;-52
2022/08/15 05:45:56;;;;;;;4.50;3.40;;;;;;;24.89;100.00;100146.13;5067153;28;20056;-54
2022/08/15 05:48:31;;;;;;;8.53;4.93;;;;;;;24.58;100.00;100155.81;5067156;28;20036;-55
2022/08/15 05:51:10;;;;;;;10.87;4.03;;;;;;;24.74;100.00;100159.00;5066689;28;20033;-55
2022/08/15 05:54:02;;;;;;;6.50;3.33;;;;;;;24.78;100.00;100159.22;5069020;28;20040;-52
2022/08/15 05:56:44;;;;;;;6.93;3.93;;;;;;;24.94;100.00;100167.06;5074090;28;20032;-49
2022/08/15 05:59:14;;;;;;;6.83;3.77;;;;;;;24.99;100.00;100161.47;5070796;28;20053;-53
2022/08/15 06:01:50;;;;;;;5.57;3.40;;;;;;;25.14;100.00;100173.97;5063496;28;20064;-54
2022/08/15 06:04:42;;;;;;;6.70;3.27;;;;;;;25.24;100.00;100167.44;5069759;28;20024;-52
2022/08/15 06:07:17;;;;;;;6.97;3.23;;;;;;;24.97;100.00;100166.44;5055500;28;20136;-54
2022/08/15 06:09:59;;;;;;;7.10;3.30;;;;;;;25.12;100.00;100174.31;5071805;28;20025;-55
2022/08/15 06:12:33;;;;;;;6.83;3.00;;;;;;;25.43;100.00;100168.06;5070291;28;20048;-54
2022/08/15 06:15:12;;;;;;;7.47;3.20;;;;;;;24.99;100.00;100177.88;5067486;28;20029;-54
2022/08/15 06:17:57;;;;;;;7.10;2.93;;;;;;;25.24;100.00;100181.97;5070702;28;20036;-54
2022/08/15 06:20:41;;;;;;;9.43;3.53;;;;;;;25.30;100.00;100185.38;5065647;28;20033;-58
2022/08/15 06:23:12;;;;;;;10.70;3.53;;;;;;;25.35;100.00;100194.25;5068897;28;20037;-56
2022/08/15 06:26:00;;;;;;;4.73;3.10;;;;;;;25.30;100.00;100205.34;5064459;28;20021;-56
2022/08/15 06:29:01;;;;;;;8.37;3.60;;;;;;;25.31;100.00;100206.94;5072274;28;20108;-54
2022/08/15 06:31:33;;;;;;;9.63;4.00;;;;;;;25.10;100.00;100203.06;5076097;28;20028;-56
2022/08/15 06:34:19;;;;;;;6.27;3.57;;;;;;;25.43;100.00;100189.16;5072249;28;20032;-56
2022/08/15 06:37:19;;;;;;;6.57;3.67;;;;;;;25.48;100.00;100194.53;5072940;28;20040;-56
2022/08/15 06:40:16;;;;;;;9.27;3.90;;;;;;;25.15;100.00;100194.78;5027290;28;20040;-58
2022/08/15 06:42:44;;;;;;;12.18;3.78;;;;;;;25.59;100.00;100203.31;5067027;28;20078;-57
2022/08/15 06:45:26;;;;;;;11.80;3.60;;;;;;;25.54;100.00;100215.19;5065896;28;20029;-56
2022/08/15 06:48:03;;;;;;;9.70;3.17;;;;;;;25.63;100.00;100207.84;5067831;28;20047;-56
2022/08/15 06:50:54;;;;;;;10.77;3.53;;;;;;;25.23;100.00;100202.22;5067965;28;20029;-55
2022/08/15 06:53:26;;;;;;;7.47;3.77;;;;;;;25.44;100.00;100201.72;5070252;28;20065;-56
2022/08/15 06:56:10;;;;;;;7.00;3.80;;;;;;;25.26;100.00;100201.59;5071288;28;20058;-58
2022/08/15 06:58:54;;;;;;;8.63;3.53;;;;;;;25.62;100.00;100216.38;5070555;28;20040;-55
2022/08/15 07:01:52;;;;;;;10.40;3.70;;;;;;;25.62;100.00;100195.28;5070268;28;20104;-53
2022/08/15 07:04:22;;;;;;;7.67;3.43;;;;;;;25.72;100.00;100207.91;5051578;28;20141;-55
2022/08/15 07:07:18;;;;;;;8.27;3.43;;;;;;;25.59;100.00;100201.34;5068660;28;20052;-57
2022/08/15 07:10:09;;;;;;;7.40;3.90;;;;;;;25.52;100.00;100202.94;5066321;28;20036;-55
2022/08/15 07:12:52;;;;;;;10.13;3.97;;;;;;;25.51;100.00;100202.13;5067103;28;20055;-53
2022/08/15 07:15:40;;;;;;;8.97;4.13;;;;;;;25.74;100.00;100191.16;5069255;28;20033;-54
2022/08/15 07:18:13;;;;;;;5.53;3.80;;;;;;;25.97;100.00;100188.34;5062456;28;20060;-55
2022/08/15 07:20:39;;;;;;;7.33;4.20;;;;;;;25.67;100.00;100182.59;5066739;28;20033;-56
2022/08/15 07:23:22;;;;;;;7.53;4.27;;;;;;;26.18;100.00;100178.47;5062545;28;20040;-57
2022/08/15 07:25:51;;;;;;;11.00;6.10;;;;;;;25.93;100.00;100179.94;5066441;28;20075;-55
2022/08/15 07:28:24;;;;;;;7.60;5.20;;;;;;;25.90;100.00;100195.09;5066071;28;20029;-54
2022/08/15 07:30:57;;;;;;;9.97;5.30;;;;;;;25.63;100.00;100177.72;5070815;28;20047;-58
2022/08/15 07:33:35;;;;;;;9.47;5.13;;;;;;;25.76;100.00;100195.19;5065390;28;20053;-58
2022/08/15 07:36:14;;;;;;;9.33;5.47;;;;;;;25.81;100.00;100185.22;5067558;28;20093;-59
2022/08/15 07:38:41;;;;;;;9.87;4.83;;;;;;;25.68;100.00;100189.66;5067845;28;20045;-57
2022/08/15 07:41:14;;;;;;;8.83;4.13;;;;;;;26.21;100.00;100185.25;5070767;28;20033;-57
2022/08/15 07:43:40;;;;;;;10.43;5.93;;;;;;;25.82;100.00;100182.16;5070850;28;20048;-58
2022/08/15 07:46:16;;;;;;;9.03;5.33;;;;;;;25.72;100.00;100198.88;5064907;28;20048;-56
2022/08/15 07:48:43;;;;;;;8.83;5.30;;;;;;;25.79;100.00;100223.88;5069214;28;20043;-56
2022/08/15 07:51:18;;;;;;;13.23;4.20;;;;;;;26.24;100.00;100200.25;5069898;28;20028;-59
2022/08/15 07:54:00;;;;;;;13.77;4.80;;;;;;;26.05;100.00;100214.97;5070034;28;20029;-56
2022/08/15 07:56:34;;;;;;;7.63;4.63;;;;;;;26.13;100.00;100210.66;5070478;28;20033;-56
2022/08/15 07:59:13;;;;;;;;;;;;;;;26.19;100.00;100209.44;5075322;28;20040;-54
2022/08/15 08:01:39;;;;;;;13.47;7.03;;;;;;;26.24;100.00;100213.94;5074277;28;19952;-57
2022/08/15 08:04:14;;;;;;;24.77;12.63;;;;;;;26.79;100.00;100215.38;5071543;28;20055;-55
2022/08/15 08:06:55;;;;;;;45.33;25.43;;;;;;;26.38;100.00;100211.91;5064564;28;20033;-54
2022/08/15 08:09:34;;;;;;;16.30;8.50;;;;;;;26.51;100.00;100203.84;5072700;28;20029;-51
2022/08/15 08:12:07;;;;;;;17.13;7.33;;;;;;;26.23;100.00;100209.59;5072140;28;20029;-56
2022/08/15 08:15:02;;;;;;;13.30;7.17;;;;;;;26.30;100.00;100207.22;5069509;28;20036;-56
2022/08/15 08:17:55;;;;;;;12.30;6.17;;;;;;;26.33;100.00;100214.81;5073136;28;20054;-55
2022/08/15 08:20:36;;;;;;;10.57;5.47;;;;;;;26.72;100.00;100220.53;5072614;28;20048;-55
2022/08/15 08:23:15;;;;;;;16.00;6.60;;;;;;;26.34;100.00;100221.91;5070084;28;20110;-53
2022/08/15 08:26:13;;;;;;;11.40;6.07;;;;;;;26.16;100.00;100226.44;5069864;28;20079;-56
2022/08/15 08:28:54;;;;;;;10.82;5.78;;;;;;;26.52;100.00;100238.38;5069231;28;20055;-57
2022/08/15 08:31:57;;;;;;;12.30;6.10;;;;;;;26.34;100.00;100228.16;5073697;28;20052;-53
2022/08/15 08:34:43;;;;;;;21.53;6.50;;;;;;;26.89;100.00;100219.75;5066350;28;20057;-53
2022/08/15 08:37:31;;;;;;;11.63;6.30;;;;;;;26.81;100.00;100228.78;5069237;28;20037;-56
2022/08/15 08:43:49;;;;;;;35.13;17.17;;;;;;;27.08;100.00;100222.19;5056971;28;20463;-57
2022/08/15 08:46:24;;;;;;;18.00;10.20;;;;;;;27.13;100.00;100229.47;5074925;28;20039;-55
2022/08/15 08:49:13;;;;;;;19.27;10.63;;;;;;;27.03;100.00;100225.91;5073855;28;20033;-56
2022/08/15 08:52:17;;;;;;;17.37;9.23;;;;;;;26.77;100.00;100226.69;5073192;28;20039;-57
2022/08/15 08:55:16;;;;;;;25.83;7.67;;;;;;;27.03;100.00;100228.66;5072521;28;20148;-53
2022/08/15 08:57:54;;;;;;;14.57;8.53;;;;;;;27.14;100.00;100233.81;5070152;28;20040;-56
2022/08/15 09:00:23;;;;;;;21.00;7.80;;;;;;;27.27;100.00;100243.00;5076666;28;20029;-55
2022/08/15 09:03:00;;;;;;;19.40;7.37;;;;;;;27.59;100.00;100240.94;5076549;28;20029;-55
2022/08/15 09:05:54;;;;;;;13.97;7.87;;;;;;;27.85;100.00;100240.84;5076922;28;20029;-56
2022/08/15 09:08:46;;;;;;;11.43;7.70;;;;;;;28.22;100.00;100237.69;5070060;28;20045;-52
2022/08/15 09:11:26;;;;;;;14.60;8.23;;;;;;;28.27;100.00;100240.25;5071443;28;20047;-56
2022/08/15 09:13:56;;;;;;;19.80;8.37;;;;;;;28.56;100.00;100235.06;5066908;28;20033;-58
2022/08/15 09:16:31;;;;;;;14.43;8.10;;;;;;;28.50;100.00;100239.97;5072250;28;20030;-55
2022/08/15 09:19:00;;;;;;;18.48;8.65;;;;;;;28.07;100.00;100235.47;5071970;28;20082;-56
2022/08/15 09:21:26;;;;;;;18.17;8.00;;;;;;;28.04;100.00;100235.00;5072753;28;20044;-53
2022/08/15 09:23:54;;;;;;;19.00;10.47;;;;;;;27.89;100.00;100230.03;5076776;28;20900;-57
2022/08/15 09:26:33;;;;;;;24.93;14.67;;;;;;;27.76;100.00;100234.59;5072643;28;20056;-54
2022/08/15 09:29:01;;;;;;;14.60;9.27;;;;;;;27.72;100.00;100244.63;5073130;28;20056;-56
2022/08/15 09:31:33;;;;;;;15.37;8.33;;;;;;;27.85;100.00;100240.84;5073350;28;20127;-53
2022/08/15 09:34:29;;;;;;;13.93;8.07;;;;;;;28.04;100.00;100234.16;5071959;28;20036;-52
2022/08/15 09:37:08;;;;;;;12.33;7.70;;;;;;;27.98;100.00;100238.25;5073711;28;20053;-55
2022/08/15 09:40:01;;;;;;;12.10;7.77;;;;;;;27.91;100.00;100239.56;5071355;28;20037;-57
2022/08/15 09:43:01;;;;;;;161.83;81.97;;;;;;;27.84;100.00;100239.25;5071578;28;20039;-55
2022/08/15 09:45:51;;;;;;;21.00;13.20;;;;;;;27.55;100.00;100243.50;5078566;28;20041;-55
2022/08/15 09:48:24;;;;;;;22.07;10.47;;;;;;;27.57;100.00;100241.25;5073943;28;20039;-52
2022/08/15 09:50:59;;;;;;;18.50;9.80;;;;;;;27.59;100.00;100241.72;5073295;28;20041;-52
2022/08/15 09:53:44;;;;;;;17.87;9.63;;;;;;;27.68;100.00;100238.16;5074065;28;20083;-55
2022/08/15 09:56:17;;;;;;;17.50;9.50;;;;;;;27.38;100.00;100247.06;5069732;28;20036;-54
2022/08/15 09:58:52;;;;;;;12.30;8.60;;;;;;;27.39;100.00;100247.84;5070195;28;20044;-55
2022/08/15 10:01:22;;;;;;;23.00;9.10;;;;;;;27.32;100.00;100240.09;5071613;28;20047;-54
2022/08/15 10:03:51;;;;;;;18.10;8.40;;;;;;;26.99;100.00;100246.09;5076991;28;20056;-54
2022/08/15 10:06:25;;;;;;;15.80;8.00;;;;;;;27.03;100.00;100242.38;5070765;28;20025;-55
2022/08/15 10:08:50;;;;;;;15.43;8.73;;;;;;;26.86;100.00;100250.59;5069397;28;20099;-52
2022/08/15 10:11:16;;;;;;;;;;;;;;;26.82;100.00;100250.38;5073315;28;20037;-53
2022/08/15 10:13:46;;;;;;;506.70;320.80;;;;;;;26.79;100.00;100251.03;5072161;28;19916;-53
2022/08/15 10:16:40;;;;;;;30.27;16.00;;;;;;;26.63;100.00;100258.91;5074345;28;20040;-54
2022/08/15 10:19:09;;;;;;;52.07;24.43;;;;;;;26.90;100.00;100257.03;5071211;28;20035;-56
2022/08/15 10:21:40;;;;;;;26.10;13.47;;;;;;;27.05;100.00;100251.09;5073865;28;20071;-56
2022/08/15 10:24:28;;;;;;;31.13;15.87;;;;;;;27.08;100.00;100255.13;5070194;28;20028;-56
2022/08/15 10:27:07;;;;;;;99.83;42.77;;;;;;;27.15;100.00;100257.38;5069488;28;20040;-54
2022/08/15 10:29:34;;;;;;;41.33;21.73;;;;;;;27.38;100.00;100257.22;5070697;28;20055;-57
2022/08/15 10:32:02;;;;;;;17.97;10.40;;;;;;;26.71;100.00;100255.34;5075396;28;20032;-53
2022/08/15 10:34:35;;;;;;;20.63;11.77;;;;;;;26.94;100.00;100254.47;5071051;28;20061;-55
2022/08/15 10:37:26;;;;;;;23.23;12.03;;;;;;;26.85;100.00;100252.50;5079504;28;20087;-53
2022/08/15 10:40:01;;;;;;;16.30;9.53;;;;;;;27.18;100.00;100260.31;5078946;28;20057;-55
2022/08/15 10:42:42;;;;;;;25.97;12.37;;;;;;;27.99;100.00;100264.59;5074808;28;20060;-55
2022/08/15 10:45:27;;;;;;;20.33;11.63;;;;;;;27.48;100.00;100262.41;5076497;28;20120;-55
2022/08/15 10:48:08;;;;;;;23.80;12.40;;;;;;;27.55;100.00;100268.22;5073709;28;20037;-57
2022/08/15 10:50:53;;;;;;;21.17;11.03;;;;;;;28.03;100.00;100268.28;5070931;28;20092;-58
2022/08/15 10:53:30;;;;;;;19.97;10.50;;;;;;;28.13;100.00;100270.66;5073403;28;20040;-56
2022/08/15 10:56:20;;;;;;;15.63;9.80;;;;;;;28.27;100.00;100275.19;5072333;28;20043;-53
2022/08/15 10:58:47;;;;;;;15.90;9.60;;;;;;;29.38;100.00;100282.59;5073777;28;20029;-56
2022/08/15 11:01:31;;;;;;;25.27;15.10;;;;;;;28.33;100.00;100282.09;5069845;28;20038;-58
2022/08/15 11:04:05;;;;;;;26.30;15.27;;;;;;;28.24;100.00;100273.88;5068923;28;20301;-58
2022/08/15 11:06:37;;;;;;;28.23;13.27;;;;;;;28.18;100.00;100284.28;5068006;28;20037;-58
2022/08/15 11:09:22;;;;;;;20.23;10.33;;;;;;;28.21;100.00;100273.75;5069215;28;20049;-56
2022/08/15 11:11:53;;;;;;;18.33;10.37;;;;;;;28.32;100.00;100277.75;5069128;28;20029;-57
2022/08/15 11:14:26;;;;;;;16.57;10.00;;;;;;;28.07;100.00;100266.47;5068787;28;20037;-58
2022/08/15 11:16:52;;;;;;;14.07;9.57;;;;;;;28.36;100.00;100278.69;5069337;28;20033;-56
2022/08/15 11:19:20;;;;;;;17.90;8.40;;;;;;;28.39;100.00;100282.72;5068520;28;20400;-55
2022/08/15 11:21:52;;;;;;;17.63;8.03;;;;;;;28.50;100.00;100289.47;5068206;28;20043;-57
2022/08/15 11:24:30;;;;;;;14.53;8.27;;;;;;;28.43;100.00;100284.50;5070293;28;20032;-58
2022/08/15 11:27:24;;;;;;;14.33;7.97;;;;;;;28.48;100.00;100283.47;5068676;28;20033;-56
2022/08/15 11:29:52;;;;;;;17.20;8.33;;;;;;;28.14;100.00;100288.78;5069725;28;20040;-56
2022/08/15 11:32:28;;;;;;;27.10;11.80;;;;;;;27.76;100.00;100287.56;5081144;28;20043;-56
2022/08/15 11:34:54;;;;;;;26.90;16.42;;;;;;;27.89;100.00;100291.25;5067681;28;20051;-54
2022/08/15 11:37:24;;;;;;;25.97;14.67;;;;;;;27.93;100.00;100288.69;5070686;28;20033;-54
2022/08/15 11:39:59;;;;;;;26.67;12.57;;;;;;;27.76;100.00;100300.50;5071739;28;20032;-57
2022/08/15 11:42:29;;;;;;;24.00;12.40;;;;;;;28.00;100.00;100301.91;5069535;28;20044;-58
2022/08/15 11:45:05;;;;;;;142.13;82.33;;;;;;;27.91;100.00;100291.75;5075470;28;20037;-57
2022/08/15 11:47:33;;;;;;;27.25;16.63;;;;;;;27.88;100.00;100292.38;5071951;28;20091;-58
2022/08/15 11:50:20;;;;;;;18.97;9.80;;;;;;;27.98;100.00;100290.44;5079977;28;20118;-57
2022/08/15 11:52:50;;;;;;;17.25;7.97;;;;;;;28.15;100.00;100292.34;5074100;28;20033;-57